sensor_id;sensor_type;location;lat;lon;timestamp;pressure;altitude;pressure_sealevel;temperature;humidity
20003;BME280;10162;41.600;23.806;2024-01-06T00:19:41;95329.59;;;0.76;100.00
20003;BME280;10162;41.600;23.806;2024-01-06T00:42:11;95292.00;;;0.45;100.00
20003;BME280;10162;41.600;23.806;2024-01-06T00:44:48;95267.72;;;0.38;100.00
20003;BME280;10162;41.600;23.806;2024-01-06T00:47:20;95246.84;;;0.31;100.00
20003;BME280;10162;41.600;23.806;2024-01-06T00:53:52;95285.72;;;0.38;100.00
20003;BME280;10162;41.600;23.806;2024-01-06T00:56:28;95249.25;;;0.23;100.00
20003;BME280;10162;41.600;23.806;2024-01-06T01:07:45;95301.09;;;0.59;100.00
20003;BME280;10162;41.600;23.806;2024-01-06T01:28:13;95277.88;;;0.09;100.00
20003;BME280;10162;41.600;23.806;2024-01-06T01:54:41;95295.25;;;-0.04;100.00
20003;BME280;10162;41.600;23.806;2024-01-06T01:57:40;95266.19;;;-0.46;100.00
20003;BME280;10162;41.600;23.806;2024-01-06T02:04:21;95256.00;;;-0.68;100.00
20003;BME280;10162;41.600;23.806;2024-01-06T02:14:10;95250.38;;;-0.62;100.00
20003;BME280;10162;41.600;23.806;2024-01-06T02:16:36;95230.97;;;-0.76;100.00
20003;BME280;10162;41.600;23.806;2024-01-06T02:22:57;95242.75;;;-0.32;100.00
20003;BME280;10162;41.600;23.806;2024-01-06T02:25:29;95220.72;;;-0.34;100.00
20003;BME280;10162;41.600;23.806;2024-01-06T02:44:09;95232.41;;;-0.42;100.00
20003;BME280;10162;41.600;23.806;2024-01-06T02:46:35;95233.59;;;-0.66;100.00
20003;BME280;10162;41.600;23.806;2024-01-06T02:53:04;95221.34;;;-0.63;100.00
20003;BME280;10162;41.600;23.806;2024-01-06T02:55:39;95240.09;;;-0.21;100.00
20003;BME280;10162;41.600;23.806;2024-01-06T03:02:25;95182.50;;;-0.49;100.00
20003;BME280;10162;41.600;23.806;2024-01-06T03:04:51;95211.97;;;-0.22;100.00
20003;BME280;10162;41.600;23.806;2024-01-06T03:16:08;95217.34;;;-0.05;100.00
20003;BME280;10162;41.600;23.806;2024-01-06T03:18:39;95212.69;;;-0.11;100.00
20003;BME280;10162;41.600;23.806;2024-01-06T03:21:05;95185.97;;;0.02;100.00
20003;BME280;10162;41.600;23.806;2024-01-06T03:43:08;95182.38;;;0.14;100.00
20003;BME280;10162;41.600;23.806;2024-01-06T04:05:01;95199.63;;;-0.28;100.00
20003;BME280;10162;41.600;23.806;2024-01-06T04:07:49;95229.22;;;-0.13;100.00
20003;BME280;10162;41.600;23.806;2024-01-06T04:14:48;95210.47;;;-0.25;100.00
20003;BME280;10162;41.600;23.806;2024-01-06T04:17:19;95173.72;;;-0.67;100.00
20003;BME280;10162;41.600;23.806;2024-01-06T04:19:54;95204.16;;;-0.62;100.00
20003;BME280;10162;41.600;23.806;2024-01-06T04:22:29;95205.81;;;-0.40;100.00
20003;BME280;10162;41.600;23.806;2024-01-06T04:27:51;95198.97;;;-0.30;100.00
20003;BME280;10162;41.600;23.806;2024-01-06T04:30:58;95202.28;;;-0.19;100.00
20003;BME280;10162;41.600;23.806;2024-01-06T04:41:29;95218.34;;;-0.17;100.00
20003;BME280;10162;41.600;23.806;2024-01-06T05:02:46;95177.88;;;-0.55;100.00
20003;BME280;10162;41.600;23.806;2024-01-06T05:05:18;95190.13;;;-0.37;100.00
20003;BME280;10162;41.600;23.806;2024-01-06T05:07:47;95176.09;;;-0.33;100.00
20003;BME280;10162;41.600;23.806;2024-01-06T05:14:12;95166.19;;;-0.38;100.00
20003;BME280;10162;41.600;23.806;2024-01-06T05:16:41;95188.91;;;-0.13;100.00
20003;BME280;10162;41.600;23.806;2024-01-06T05:31:09;95150.28;;;-0.32;100.00
20003;BME280;10162;41.600;23.806;2024-01-06T05:58:05;95178.75;;;0.16;100.00
20003;BME280;10162;41.600;23.806;2024-01-06T06:09:18;95179.41;;;0.68;100.00
20003;BME280;10162;41.600;23.806;2024-01-06T06:28:19;95190.94;;;0.73;100.00
20003;BME280;10162;41.600;23.806;2024-01-06T06:44:20;95171.03;;;1.23;100.00
20003;BME280;10162;41.600;23.806;2024-01-06T06:55:19;95142.19;;;0.91;100.00
20003;BME280;10162;41.600;23.806;2024-01-06T07:30:06;95165.16;;;1.50;100.00
20003;BME280;10162;41.600;23.806;2024-01-06T08:08:17;95148.09;;;1.96;100.00
20003;BME280;10162;41.600;23.806;2024-01-06T08:10:49;95135.41;;;1.75;100.00
20003;BME280;10162;41.600;23.806;2024-01-06T08:13:15;95169.56;;;1.77;100.00
20003;BME280;10162;41.600;23.806;2024-01-06T08:15:47;95128.19;;;1.42;100.00
20003;BME280;10162;41.600;23.806;2024-01-06T08:23:16;95117.72;;;1.43;100.00
20003;BME280;10162;41.600;23.806;2024-01-06T08:33:39;95139.44;;;1.87;100.00
20003;BME280;10162;41.600;23.806;2024-01-06T08:36:15;95110.03;;;2.07;100.00
20003;BME280;10162;41.600;23.806;2024-01-06T08:38:47;95140.59;;;2.30;100.00
20003;BME280;10162;41.600;23.806;2024-01-06T08:41:13;95130.03;;;2.51;100.00
20003;BME280;10162;41.600;23.806;2024-01-06T08:43:42;95128.31;;;2.41;100.00
20003;BME280;10162;41.600;23.806;2024-01-06T08:46:11;95133.41;;;2.51;100.00
20003;BME280;10162;41.600;23.806;2024-01-06T08:49:19;95150.56;;;2.87;100.00
20003;BME280;10162;41.600;23.806;2024-01-06T08:55:55;95109.59;;;3.10;100.00
20003;BME280;10162;41.600;23.806;2024-01-06T09:02:27;95124.72;;;3.49;100.00
20003;BME280;10162;41.600;23.806;2024-01-06T09:05:27;95105.06;;;3.56;100.00
20003;BME280;10162;41.600;23.806;2024-01-06T09:08:05;95105.28;;;3.62;100.00
20003;BME280;10162;41.600;23.806;2024-01-06T09:10:31;95070.22;;;3.34;100.00
20003;BME280;10162;41.600;23.806;2024-01-06T09:13:10;95095.47;;;3.40;100.00
20003;BME280;10162;41.600;23.806;2024-01-06T09:15:36;95070.53;;;3.65;100.00
20003;BME280;10162;41.600;23.806;2024-01-06T09:18:02;95060.75;;;3.77;100.00
20003;BME280;10162;41.600;23.806;2024-01-06T09:20:43;95071.47;;;3.90;100.00
20003;BME280;10162;41.600;23.806;2024-01-06T09:23:09;95045.56;;;3.73;100.00
20003;BME280;10162;41.600;23.806;2024-01-06T09:25:36;95056.38;;;3.77;100.00
20003;BME280;10162;41.600;23.806;2024-01-06T09:28:03;95075.50;;;3.84;100.00
20003;BME280;10162;41.600;23.806;2024-01-06T09:30:37;95077.31;;;3.92;100.00
20003;BME280;10162;41.600;23.806;2024-01-06T09:33:33;95054.69;;;3.60;100.00
20003;BME280;10162;41.600;23.806;2024-01-06T09:36:26;95038.34;;;3.85;100.00
20003;BME280;10162;41.600;23.806;2024-01-06T09:42:46;95036.31;;;4.13;100.00
20003;BME280;10162;41.600;23.806;2024-01-06T09:45:15;95040.25;;;4.25;100.00
20003;BME280;10162;41.600;23.806;2024-01-06T09:47:41;95036.09;;;4.56;100.00
20003;BME280;10162;41.600;23.806;2024-01-06T09:54:03;95020.25;;;4.60;100.00
20003;BME280;10162;41.600;23.806;2024-01-06T09:56:33;95028.97;;;4.91;100.00
20003;BME280;10162;41.600;23.806;2024-01-06T09:59:15;95006.91;;;4.22;100.00
20003;BME280;10162;41.600;23.806;2024-01-06T10:02:50;94997.25;;;4.73;100.00
20003;BME280;10162;41.600;23.806;2024-01-06T10:05:21;94979.94;;;4.89;100.00
20003;BME280;10162;41.600;23.806;2024-01-06T10:07:47;94974.06;;;5.28;100.00
20003;BME280;10162;41.600;23.806;2024-01-06T10:10:22;94976.13;;;5.40;100.00
20003;BME280;10162;41.600;23.806;2024-01-06T10:12:48;94987.31;;;5.33;100.00
20003;BME280;10162;41.600;23.806;2024-01-06T10:15:19;94987.34;;;5.09;100.00
20003;BME280;10162;41.600;23.806;2024-01-06T10:17:45;94968.25;;;5.18;100.00
20003;BME280;10162;41.600;23.806;2024-01-06T10:20:23;94975.53;;;5.14;100.00
20003;BME280;10162;41.600;23.806;2024-01-06T10:22:50;94971.97;;;5.07;100.00
20003;BME280;10162;41.600;23.806;2024-01-06T10:25:16;94972.97;;;6.00;100.00
20003;BME280;10162;41.600;23.806;2024-01-06T10:27:42;94934.31;;;5.44;100.00
20003;BME280;10162;41.600;23.806;2024-01-06T10:30:15;94949.31;;;6.03;100.00
20003;BME280;10162;41.600;23.806;2024-01-06T10:32:43;94938.03;;;6.11;100.00
20003;BME280;10162;41.600;23.806;2024-01-06T10:35:09;94940.50;;;5.73;100.00
20003;BME280;10162;41.600;23.806;2024-01-06T10:37:36;94953.41;;;5.90;100.00
20003;BME280;10162;41.600;23.806;2024-01-06T10:42:57;94917.03;;;5.67;100.00
20003;BME280;10162;41.600;23.806;2024-01-06T10:45:23;94912.47;;;6.08;100.00
20003;BME280;10162;41.600;23.806;2024-01-06T10:47:57;94897.81;;;5.92;100.00
20003;BME280;10162;41.600;23.806;2024-01-06T10:53:20;94907.94;;;6.02;100.00
20003;BME280;10162;41.600;23.806;2024-01-06T10:55:49;94894.00;;;6.03;100.00
20003;BME280;10162;41.600;23.806;2024-01-06T10:58:23;94891.75;;;5.69;100.00
20003;BME280;10162;41.600;23.806;2024-01-06T11:00:49;94904.22;;;5.65;100.00
20003;BME280;10162;41.600;23.806;2024-01-06T11:03:15;94915.13;;;5.61;100.00
20003;BME280;10162;41.600;23.806;2024-01-06T11:05:41;94908.16;;;5.53;100.00
20003;BME280;10162;41.600;23.806;2024-01-06T11:08:17;94888.97;;;5.39;100.00
20003;BME280;10162;41.600;23.806;2024-01-06T11:10:44;94863.00;;;5.09;100.00
20003;BME280;10162;41.600;23.806;2024-01-06T11:13:21;94871.38;;;5.19;100.00
20003;BME280;10162;41.600;23.806;2024-01-06T11:15:49;94897.34;;;5.50;100.00
20003;BME280;10162;41.600;23.806;2024-01-06T11:18:36;94889.69;;;5.87;100.00
20003;BME280;10162;41.600;23.806;2024-01-06T11:24:14;94879.63;;;6.75;100.00
20003;BME280;10162;41.600;23.806;2024-01-06T11:26:44;94849.97;;;6.70;100.00
20003;BME280;10162;41.600;23.806;2024-01-06T11:32:20;94871.47;;;6.93;100.00
20003;BME280;10162;41.600;23.806;2024-01-06T11:34:51;94857.31;;;7.10;100.00
20003;BME280;10162;41.600;23.806;2024-01-06T11:40:32;94858.84;;;7.70;100.00
20003;BME280;10162;41.600;23.806;2024-01-06T11:43:11;94826.13;;;7.97;100.00
20003;BME280;10162;41.600;23.806;2024-01-06T11:45:40;94806.63;;;7.93;100.00
20003;BME280;10162;41.600;23.806;2024-01-06T11:48:11;94803.28;;;8.20;100.00
20003;BME280;10162;41.600;23.806;2024-01-06T11:50:40;94823.00;;;8.29;100.00
20003;BME280;10162;41.600;23.806;2024-01-06T11:53:08;94816.84;;;8.15;100.00
20003;BME280;10162;41.600;23.806;2024-01-06T11:55:38;94784.78;;;8.08;100.00
20003;BME280;10162;41.600;23.806;2024-01-06T11:58:04;94807.00;;;8.11;100.00
20003;BME280;10162;41.600;23.806;2024-01-06T12:00:34;94812.34;;;8.03;100.00
20003;BME280;10162;41.600;23.806;2024-01-06T12:03:02;94784.75;;;7.87;100.00
20003;BME280;10162;41.600;23.806;2024-01-06T12:05:28;94776.09;;;7.80;100.00
20003;BME280;10162;41.600;23.806;2024-01-06T12:08:04;94806.06;;;8.40;100.00
20003;BME280;10162;41.600;23.806;2024-01-06T12:10:32;94802.16;;;8.29;100.00
20003;BME280;10162;41.600;23.806;2024-01-06T12:13:06;94803.53;;;8.25;100.00
20003;BME280;10162;41.600;23.806;2024-01-06T12:15:34;94772.84;;;7.99;100.00
20003;BME280;10162;41.600;23.806;2024-01-06T12:18:03;94788.72;;;8.25;100.00
20003;BME280;10162;41.600;23.806;2024-01-06T12:20:30;94788.84;;;8.17;100.00
20003;BME280;10162;41.600;23.806;2024-01-06T12:22:56;94748.72;;;7.84;100.00
20003;BME280;10162;41.600;23.806;2024-01-06T12:25:23;94744.31;;;7.84;100.00
20003;BME280;10162;41.600;23.806;2024-01-06T12:27:49;94764.69;;;7.81;100.00
20003;BME280;10162;41.600;23.806;2024-01-06T12:30:29;94745.97;;;7.71;100.00
20003;BME280;10162;41.600;23.806;2024-01-06T12:32:56;94726.09;;;7.84;100.00
20003;BME280;10162;41.600;23.806;2024-01-06T12:35:22;94729.88;;;8.10;100.00
20003;BME280;10162;41.600;23.806;2024-01-06T12:37:48;94729.25;;;8.29;100.00
20003;BME280;10162;41.600;23.806;2024-01-06T12:40:18;94719.56;;;8.23;100.00
20003;BME280;10162;41.600;23.806;2024-01-06T12:42:45;94747.41;;;8.22;100.00
20003;BME280;10162;41.600;23.806;2024-01-06T12:45:11;94751.16;;;7.92;100.00
20003;BME280;10162;41.600;23.806;2024-01-06T12:47:38;94733.22;;;7.76;100.00
20003;BME280;10162;41.600;23.806;2024-01-06T12:50:40;94768.09;;;7.81;100.00
20003;BME280;10162;41.600;23.806;2024-01-06T12:53:06;94743.81;;;7.53;100.00
20003;BME280;10162;41.600;23.806;2024-01-06T12:55:32;94746.44;;;7.74;100.00
20003;BME280;10162;41.600;23.806;2024-01-06T12:57:59;94737.69;;;7.82;100.00
20003;BME280;10162;41.600;23.806;2024-01-06T13:03:33;94734.28;;;7.60;100.00
20003;BME280;10162;41.600;23.806;2024-01-06T13:06:00;94727.47;;;7.59;100.00
20003;BME280;10162;41.600;23.806;2024-01-06T13:08:52;94742.63;;;7.77;100.00
20003;BME280;10162;41.600;23.806;2024-01-06T13:11:18;94719.53;;;7.67;100.00
20003;BME280;10162;41.600;23.806;2024-01-06T13:17:09;94738.72;;;7.87;100.00
20003;BME280;10162;41.600;23.806;2024-01-06T13:20:02;94723.72;;;7.89;100.00
20003;BME280;10162;41.600;23.806;2024-01-06T13:22:28;94702.13;;;7.68;100.00
20003;BME280;10162;41.600;23.806;2024-01-06T13:24:54;94716.63;;;7.77;100.00
20003;BME280;10162;41.600;23.806;2024-01-06T13:27:20;94662.94;;;7.48;100.00
20003;BME280;10162;41.600;23.806;2024-01-06T13:33:39;94671.09;;;7.66;100.00
20003;BME280;10162;41.600;23.806;2024-01-06T13:36:05;94669.63;;;7.57;100.00
20003;BME280;10162;41.600;23.806;2024-01-06T13:42:26;94679.00;;;7.52;100.00
20003;BME280;10162;41.600;23.806;2024-01-06T13:44:52;94670.38;;;7.51;100.00
20003;BME280;10162;41.600;23.806;2024-01-06T13:47:18;94639.06;;;7.38;100.00
20003;BME280;10162;41.600;23.806;2024-01-06T13:53:39;94666.00;;;7.58;100.00
20003;BME280;10162;41.600;23.806;2024-01-06T13:56:06;94637.38;;;7.52;100.00
20003;BME280;10162;41.600;23.806;2024-01-06T14:06:20;94671.53;;;7.48;100.00
20003;BME280;10162;41.600;23.806;2024-01-06T14:12:14;94643.13;;;7.47;100.00
20003;BME280;10162;41.600;23.806;2024-01-06T14:14:40;94649.63;;;7.36;100.00
20003;BME280;10162;41.600;23.806;2024-01-06T14:17:09;94629.81;;;7.35;100.00
20003;BME280;10162;41.600;23.806;2024-01-06T14:20:11;94654.22;;;7.56;100.00
20003;BME280;10162;41.600;23.806;2024-01-06T14:22:38;94644.06;;;7.39;100.00
20003;BME280;10162;41.600;23.806;2024-01-06T14:28:58;94635.50;;;7.24;100.00
20003;BME280;10162;41.600;23.806;2024-01-06T14:31:25;94636.56;;;7.30;100.00
20003;BME280;10162;41.600;23.806;2024-01-06T14:33:54;94645.00;;;7.32;100.00
20003;BME280;10162;41.600;23.806;2024-01-06T14:36:20;94619.59;;;7.13;100.00
20003;BME280;10162;41.600;23.806;2024-01-06T14:42:41;94623.88;;;6.99;100.00
20003;BME280;10162;41.600;23.806;2024-01-06T14:45:07;94635.34;;;7.04;100.00
20003;BME280;10162;41.600;23.806;2024-01-06T14:47:33;94626.50;;;6.99;100.00
20003;BME280;10162;41.600;23.806;2024-01-06T14:53:53;94618.84;;;6.76;100.00
20003;BME280;10162;41.600;23.806;2024-01-06T14:56:21;94608.38;;;6.70;100.00
20003;BME280;10162;41.600;23.806;2024-01-06T14:59:01;94630.53;;;6.66;100.00
20003;BME280;10162;41.600;23.806;2024-01-06T15:01:27;94594.47;;;6.41;100.00
20003;BME280;10162;41.600;23.806;2024-01-06T15:03:53;94609.44;;;6.39;100.00
20003;BME280;10162;41.600;23.806;2024-01-06T15:06:20;94602.28;;;6.41;100.00
20003;BME280;10162;41.600;23.806;2024-01-06T15:15:54;94608.69;;;6.09;100.00
20003;BME280;10162;41.600;23.806;2024-01-06T15:18:20;94589.97;;;5.99;100.00
20003;BME280;10162;41.600;23.806;2024-01-06T15:20:46;94589.66;;;5.79;100.00
20003;BME280;10162;41.600;23.806;2024-01-06T15:23:12;94578.66;;;5.77;100.00
20003;BME280;10162;41.600;23.806;2024-01-06T15:25:38;94606.47;;;5.83;100.00
20003;BME280;10162;41.600;23.806;2024-01-06T15:28:04;94617.16;;;5.89;100.00
20003;BME280;10162;41.600;23.806;2024-01-06T15:30:30;94611.78;;;5.90;100.00
20003;BME280;10162;41.600;23.806;2024-01-06T15:32:56;94585.38;;;5.57;100.00
20003;BME280;10162;41.600;23.806;2024-01-06T15:35:22;94593.31;;;5.70;100.00
20003;BME280;10162;41.600;23.806;2024-01-06T15:37:47;94581.97;;;5.57;100.00
20003;BME280;10162;41.600;23.806;2024-01-06T15:40:16;94601.91;;;5.71;100.00
20003;BME280;10162;41.600;23.806;2024-01-06T15:42:42;94591.53;;;5.56;100.00
20003;BME280;10162;41.600;23.806;2024-01-06T15:45:21;94576.25;;;5.47;100.00
20003;BME280;10162;41.600;23.806;2024-01-06T15:47:47;94576.41;;;5.60;100.00
20003;BME280;10162;41.600;23.806;2024-01-06T15:50:13;94589.22;;;5.76;100.00
20003;BME280;10162;41.600;23.806;2024-01-06T15:52:39;94585.09;;;5.67;100.00
20003;BME280;10162;41.600;23.806;2024-01-06T15:55:06;94589.13;;;5.69;100.00
20003;BME280;10162;41.600;23.806;2024-01-06T15:57:32;94607.09;;;5.71;100.00
20003;BME280;10162;41.600;23.806;2024-01-06T16:00:17;94586.19;;;5.58;100.00
20003;BME280;10162;41.600;23.806;2024-01-06T16:02:43;94583.91;;;5.55;100.00
20003;BME280;10162;41.600;23.806;2024-01-06T16:05:09;94575.88;;;5.50;100.00
20003;BME280;10162;41.600;23.806;2024-01-06T16:07:44;94569.97;;;5.41;100.00
20003;BME280;10162;41.600;23.806;2024-01-06T16:10:21;94582.03;;;5.49;100.00
20003;BME280;10162;41.600;23.806;2024-01-06T16:14:03;94562.47;;;5.46;100.00
20003;BME280;10162;41.600;23.806;2024-01-06T16:16:29;94534.66;;;5.40;100.00
20003;BME280;10162;41.600;23.806;2024-01-06T16:19:07;94562.34;;;5.92;100.00
20003;BME280;10162;41.600;23.806;2024-01-06T16:21:54;94555.16;;;5.94;100.00
20003;BME280;10162;41.600;23.806;2024-01-06T16:24:20;94545.22;;;5.82;100.00
20003;BME280;10162;41.600;23.806;2024-01-06T16:26:52;94558.19;;;5.82;100.00
20003;BME280;10162;41.600;23.806;2024-01-06T16:29:31;94564.28;;;5.90;100.00
20003;BME280;10162;41.600;23.806;2024-01-06T16:31:57;94549.06;;;5.87;100.00
20003;BME280;10162;41.600;23.806;2024-01-06T16:34:22;94572.16;;;6.11;100.00
20003;BME280;10162;41.600;23.806;2024-01-06T16:36:48;94533.94;;;5.75;100.00
20003;BME280;10162;41.600;23.806;2024-01-06T16:43:08;94565.00;;;5.98;100.00
20003;BME280;10162;41.600;23.806;2024-01-06T16:45:34;94552.81;;;5.99;100.00
20003;BME280;10162;41.600;23.806;2024-01-06T16:47:59;94541.28;;;6.01;100.00
20003;BME280;10162;41.600;23.806;2024-01-06T16:50:48;94567.84;;;6.18;100.00
20003;BME280;10162;41.600;23.806;2024-01-06T16:53:14;94550.03;;;6.30;100.00
20003;BME280;10162;41.600;23.806;2024-01-06T16:55:39;94548.47;;;6.35;100.00
20003;BME280;10162;41.600;23.806;2024-01-06T16:58:06;94542.13;;;6.38;100.00
20003;BME280;10162;41.600;23.806;2024-01-06T17:00:32;94536.31;;;6.36;100.00
20003;BME280;10162;41.600;23.806;2024-01-06T17:03:04;94553.28;;;6.53;100.00
20003;BME280;10162;41.600;23.806;2024-01-06T17:05:59;94557.75;;;6.80;100.00
20003;BME280;10162;41.600;23.806;2024-01-06T17:12:23;94522.09;;;6.95;100.00
20003;BME280;10162;41.600;23.806;2024-01-06T17:14:52;94482.19;;;7.03;100.00
20003;BME280;10162;41.600;23.806;2024-01-06T17:17:18;94525.19;;;7.05;100.00
20003;BME280;10162;41.600;23.806;2024-01-06T17:23:07;94510.53;;;7.88;100.00
20003;BME280;10162;41.600;23.806;2024-01-06T17:25:33;94529.28;;;8.65;100.00
20003;BME280;10162;41.600;23.806;2024-01-06T17:27:59;94512.44;;;8.75;100.00
20003;BME280;10162;41.600;23.806;2024-01-06T17:34:19;94504.75;;;8.47;100.00
20003;BME280;10162;41.600;23.806;2024-01-06T17:36:45;94493.00;;;8.70;100.00
20003;BME280;10162;41.600;23.806;2024-01-06T17:43:05;94507.91;;;6.70;100.00
20003;BME280;10162;41.600;23.806;2024-01-06T17:45:32;94513.59;;;6.23;100.00
20003;BME280;10162;41.600;23.806;2024-01-06T17:47:58;94507.28;;;6.11;100.00
20003;BME280;10162;41.600;23.806;2024-01-06T17:54:27;94482.88;;;5.76;100.00
20003;BME280;10162;41.600;23.806;2024-01-06T17:57:44;94476.09;;;5.90;100.00
20003;BME280;10162;41.600;23.806;2024-01-06T18:00:31;94474.66;;;6.23;100.00
20003;BME280;10162;41.600;23.806;2024-01-06T18:02:57;94487.41;;;6.18;100.00
20003;BME280;10162;41.600;23.806;2024-01-06T18:05:23;94467.03;;;6.00;100.00
20003;BME280;10162;41.600;23.806;2024-01-06T18:07:49;94443.00;;;5.77;100.00
20003;BME280;10162;41.600;23.806;2024-01-06T18:17:49;94462.72;;;6.07;100.00
20003;BME280;10162;41.600;23.806;2024-01-06T18:20:20;94452.78;;;6.11;100.00
20003;BME280;10162;41.600;23.806;2024-01-06T18:22:47;94424.22;;;5.90;100.00
20003;BME280;10162;41.600;23.806;2024-01-06T18:25:17;94410.78;;;5.86;100.00
20003;BME280;10162;41.600;23.806;2024-01-06T18:27:46;94419.47;;;5.93;100.00
20003;BME280;10162;41.600;23.806;2024-01-06T18:33:21;94398.34;;;5.81;100.00
20003;BME280;10162;41.600;23.806;2024-01-06T18:35:47;94369.28;;;5.50;100.00
20003;BME280;10162;41.600;23.806;2024-01-06T18:38:14;94395.16;;;5.79;100.00
20003;BME280;10162;41.600;23.806;2024-01-06T18:40:40;94397.25;;;5.69;100.00
20003;BME280;10162;41.600;23.806;2024-01-06T18:43:11;94405.13;;;5.61;100.00
20003;BME280;10162;41.600;23.806;2024-01-06T18:52:40;94400.53;;;6.14;100.00
20003;BME280;10162;41.600;23.806;2024-01-06T18:55:06;94405.78;;;6.20;100.00
20003;BME280;10162;41.600;23.806;2024-01-06T18:57:32;94413.56;;;6.20;100.00
20003;BME280;10162;41.600;23.806;2024-01-06T19:00:12;94388.97;;;6.16;100.00
20003;BME280;10162;41.600;23.806;2024-01-06T19:02:41;94409.97;;;6.43;100.00
20003;BME280;10162;41.600;23.806;2024-01-06T19:05:07;94377.84;;;6.22;100.00
20003;BME280;10162;41.600;23.806;2024-01-06T19:07:33;94387.97;;;6.39;100.00
20003;BME280;10162;41.600;23.806;2024-01-06T19:10:03;94363.44;;;6.41;100.00
20003;BME280;10162;41.600;23.806;2024-01-06T19:12:29;94367.25;;;6.45;100.00
20003;BME280;10162;41.600;23.806;2024-01-06T19:14:55;94382.59;;;6.68;100.00
20003;BME280;10162;41.600;23.806;2024-01-06T19:17:21;94369.97;;;6.58;100.00
20003;BME280;10162;41.600;23.806;2024-01-06T19:24:00;94322.28;;;6.73;100.00
20003;BME280;10162;41.600;23.806;2024-01-06T19:26:48;94318.22;;;7.39;100.00
20003;BME280;10162;41.600;23.806;2024-01-06T19:33:08;94293.59;;;8.42;100.00
20003;BME280;10162;41.600;23.806;2024-01-06T19:35:34;94305.63;;;8.36;100.00
20003;BME280;10162;41.600;23.806;2024-01-06T19:38:00;94304.59;;;8.24;100.00
20003;BME280;10162;41.600;23.806;2024-01-06T19:44:20;94308.34;;;7.88;100.00
20003;BME280;10162;41.600;23.806;2024-01-06T19:46:45;94291.56;;;7.17;100.00
20003;BME280;10162;41.600;23.806;2024-01-06T19:52:19;94270.44;;;6.92;100.00
20003;BME280;10162;41.600;23.806;2024-01-06T19:54:45;94262.25;;;6.89;100.00
20003;BME280;10162;41.600;23.806;2024-01-06T19:57:10;94236.34;;;6.68;100.00
20003;BME280;10162;41.600;23.806;2024-01-06T19:59:51;94244.91;;;6.61;100.00
20003;BME280;10162;41.600;23.806;2024-01-06T20:02:26;94241.75;;;6.66;100.00
20003;BME280;10162;41.600;23.806;2024-01-06T20:04:57;94245.53;;;6.63;100.00
20003;BME280;10162;41.600;23.806;2024-01-06T20:07:24;94226.75;;;6.61;100.00
20003;BME280;10162;41.600;23.806;2024-01-06T20:13:19;94221.22;;;6.71;100.00
20003;BME280;10162;41.600;23.806;2024-01-06T20:15:51;94200.97;;;6.60;100.00
20003;BME280;10162;41.600;23.806;2024-01-06T20:18:26;94189.28;;;6.84;100.00
20003;BME280;10162;41.600;23.806;2024-01-06T20:20:55;94190.47;;;6.81;100.00
20003;BME280;10162;41.600;23.806;2024-01-06T20:23:21;94233.69;;;6.95;100.00
20003;BME280;10162;41.600;23.806;2024-01-06T20:25:53;94232.59;;;6.70;100.00
20003;BME280;10162;41.600;23.806;2024-01-06T20:31:35;94223.28;;;6.89;100.00
20003;BME280;10162;41.600;23.806;2024-01-06T20:34:01;94223.66;;;6.86;100.00
20003;BME280;10162;41.600;23.806;2024-01-06T20:36:35;94210.38;;;6.68;100.00
20003;BME280;10162;41.600;23.806;2024-01-06T20:42:30;94220.22;;;6.79;100.00
20003;BME280;10162;41.600;23.806;2024-01-06T20:45:03;94225.66;;;6.90;100.00
20003;BME280;10162;41.600;23.806;2024-01-06T20:47:35;94203.47;;;6.81;100.00
20003;BME280;10162;41.600;23.806;2024-01-06T20:50:02;94198.09;;;6.89;100.00
20003;BME280;10162;41.600;23.806;2024-01-06T20:52:29;94221.53;;;7.09;100.00
20003;BME280;10162;41.600;23.806;2024-01-06T20:54:55;94185.72;;;6.91;100.00
20003;BME280;10162;41.600;23.806;2024-01-06T20:57:21;94171.56;;;7.00;100.00
20003;BME280;10162;41.600;23.806;2024-01-06T21:03:01;94176.16;;;7.05;100.00
20003;BME280;10162;41.600;23.806;2024-01-06T21:05:28;94185.41;;;7.27;100.00
20003;BME280;10162;41.600;23.806;2024-01-06T21:08:00;94168.81;;;7.41;100.00
20003;BME280;10162;41.600;23.806;2024-01-06T21:10:28;94141.22;;;7.34;100.00
20003;BME280;10162;41.600;23.806;2024-01-06T21:12:53;94146.22;;;7.81;100.00
20003;BME280;10162;41.600;23.806;2024-01-06T21:15:19;94121.19;;;8.07;100.00
20003;BME280;10162;41.600;23.806;2024-01-06T21:17:50;94153.75;;;8.42;100.00
20003;BME280;10162;41.600;23.806;2024-01-06T21:24:56;94131.66;;;8.64;100.00
20003;BME280;10162;41.600;23.806;2024-01-06T21:27:21;94120.59;;;8.69;100.00
20003;BME280;10162;41.600;23.806;2024-01-06T21:34:14;94113.53;;;8.18;100.00
20003;BME280;10162;41.600;23.806;2024-01-06T21:36:41;94084.78;;;7.80;100.00
20003;BME280;10162;41.600;23.806;2024-01-06T21:42:25;94134.84;;;7.63;100.00
20003;BME280;10162;41.600;23.806;2024-01-06T21:48:06;94093.19;;;6.90;100.00
20003;BME280;10162;41.600;23.806;2024-01-06T21:50:31;94079.16;;;6.78;100.00
20003;BME280;10162;41.600;23.806;2024-01-06T21:53:04;94065.38;;;6.64;100.00
20003;BME280;10162;41.600;23.806;2024-01-06T21:55:39;94063.94;;;6.62;100.00
20003;BME280;10162;41.600;23.806;2024-01-06T21:58:05;94053.53;;;6.49;100.00
20003;BME280;10162;41.600;23.806;2024-01-06T22:00:35;94049.56;;;6.53;100.00
20003;BME280;10162;41.600;23.806;2024-01-06T22:03:01;94039.78;;;6.55;100.00
20003;BME280;10162;41.600;23.806;2024-01-06T22:05:29;94047.56;;;6.55;100.00
20003;BME280;10162;41.600;23.806;2024-01-06T22:07:55;94042.97;;;6.57;100.00
20003;BME280;10162;41.600;23.806;2024-01-06T22:13:54;94056.81;;;6.77;100.00
20003;BME280;10162;41.600;23.806;2024-01-06T22:16:20;94029.97;;;6.57;100.00
20003;BME280;10162;41.600;23.806;2024-01-06T22:18:59;94018.78;;;6.50;100.00